Time;durP1;ratioP1;P1;durP2;ratioP2;P2;SDS_P1;SDS_P2;PMS_P1;PMS_P2;Temp;Humidity;BMP_temperature;BMP_pressure;BME280_temperature;BME280_humidity;BME280_pressure;Samples;Min_cycle;Max_cycle;Signal;HPM_P1;HPM_P2
2022/05/09 00:01:48;;;;;;;;;;;;;;;;;;4697171;30;20443;-84
2022/05/09 00:04:14;;;;;;;;;;;;;;;;;;4686165;30;19934;-84
2022/05/09 00:06:40;;;;;;;;;;;;;;;;;;4691170;30;19930;-84
2022/05/09 00:09:05;;;;;;;;;;;;;;;;;;4695400;30;19926;-84
2022/05/09 00:11:31;;;;;;;;;;;;;;;;;;4714433;30;20080;-84
2022/05/09 00:13:57;;;;;;;;;;;;;;;;;;4686023;30;19941;-84
2022/05/09 00:16:23;;;;;;;;;;;;;;;;;;4719736;29;21548;-84
2022/05/09 00:18:49;;;;;;;;;;;;;;;;;;4713219;30;20070;-84
2022/05/09 00:21:15;;;;;;;;;;;;;;;;;;4710441;29;19973;-84
2022/05/09 00:23:41;;;;;;;;;;;;;;;;;;4700603;30;19934;-84
2022/05/09 00:26:07;;;;;;;;;;;;;;;;;;4680457;30;19976;-85
2022/05/09 00:28:33;;;;;;;;;;;;;;;;;;4687622;30;19957;-85
2022/05/09 00:30:59;;;;;;;;;;;;;;;;;;4705102;30;20406;-84
2022/05/09 00:33:25;;;;;;;;;;;;;;;;;;4686590;30;19934;-84
2022/05/09 00:35:51;;;;;;;;;;;;;;;;;;4690641;30;20326;-84
2022/05/09 00:38:17;;;;;;;;;;;;;;;;;;4691997;30;20093;-84
2022/05/09 00:41:31;;;;;;;;;;;;;;;;;;4687693;30;19952;-84
2022/05/09 00:43:30;;;;;;;;;;;;;;;;;;4691247;30;19935;-84
2022/05/09 00:45:56;;;;;;;;;;;;;;;;;;4687697;30;19938;-84
2022/05/09 00:48:21;;;;;;;;;;;;;;;;;;4694944;30;21103;-84
2022/05/09 00:50:47;;;;;;;;;;;;;;;;;;4690544;30;19991;-84
2022/05/09 00:53:13;;;;;;;;;;;;;;;;;;4684961;30;19974;-84
2022/05/09 00:55:41;;;;;;;;;;;;;;;;;;4689289;30;19987;-84
2022/05/09 00:58:07;;;;;;;;;;;;;;;;;;4700255;30;19978;-84
2022/05/09 01:00:33;;;;;;;;;;;;;;;;;;4692427;30;20029;-83
2022/05/09 01:02:59;;;;;;;;;;;;;;;;;;4717624;30;19973;-83
2022/05/09 01:05:25;;;;;;;;;;;;;;;;;;4711395;30;19935;-83
2022/05/09 01:07:51;;;;;;;;;;;;;;;;;;4694174;30;19931;-84
2022/05/09 01:10:17;;;;;;;;;;;;;;;;;;4711963;30;19988;-83
2022/05/09 01:12:43;;;;;;;;;;;;;;;;;;4688007;30;19934;-84
2022/05/09 01:15:09;;;;;;;;;;;;;;;;;;4697887;30;20405;-84
2022/05/09 01:17:39;;;;;;;;;;;;;;;;;;4688176;30;19942;-84
2022/05/09 01:20:05;;;;;;;;;;;;;;;;;;4701478;30;19935;-84
2022/05/09 01:22:31;;;;;;;;;;;;;;;;;;4699887;30;20743;-84
2022/05/09 01:25:00;;;;;;;;;;;;;;;;;;4699684;30;19935;-84
2022/05/09 01:27:26;;;;;;;;;;;;;;;;;;4703008;30;19934;-84
2022/05/09 01:29:52;;;;;;;;;;;;;;;;;;4688817;30;19941;-84
2022/05/09 01:32:18;;;;;;;;;;;;;;;;;;4696759;30;20013;-84
2022/05/09 01:34:44;;;;;;;;;;;;;;;;;;4698956;30;19940;-84
2022/05/09 01:37:10;;;;;;;;;;;;;;;;;;4685566;29;19937;-84
2022/05/09 01:39:36;;;;;;;;;;;;;;;;;;4701638;30;19977;-84
2022/05/09 01:42:05;;;;;;;;;;;;;;;;;;4689473;30;19980;-84
2022/05/09 01:44:31;;;;;;;;;;;;;;;;;;4701014;30;19933;-84
2022/05/09 01:49:41;;;;;;;;;;;;;;;;;;4713297;30;20527;-84
2022/05/09 01:52:07;;;;;;;;;;;;;;;;;;4694093;30;19935;-84
2022/05/09 01:54:33;;;;;;;;;;;;;;;;;;4684589;30;19937;-84
2022/05/09 01:56:59;;;;;;;;;;;;;;;;;;4700922;30;19937;-84
2022/05/09 01:59:25;;;;;;;;;;;;;;;;;;4697530;30;19934;-84
2022/05/09 02:01:51;;;;;;;;;;;;;;;;;;4702836;30;20306;-84
2022/05/09 02:04:17;;;;;;;;;;;;;;;;;;4697948;30;20015;-84
2022/05/09 02:06:43;;;;;;;;;;;;;;;;;;4704837;30;19945;-84
2022/05/09 02:09:09;;;;;;;;;;;;;;;;;;4711014;30;19934;-84
2022/05/09 02:11:35;;;;;;;;;;;;;;;;;;4703833;30;19996;-84
2022/05/09 02:14:01;;;;;;;;;;;;;;;;;;4714537;30;21822;-84
2022/05/09 02:16:27;;;;;;;;;;;;;;;;;;4680487;30;19966;-84
2022/05/09 02:18:53;;;;;;;;;;;;;;;;;;4706281;30;19948;-84
2022/05/09 02:21:19;;;;;;;;;;;;;;;;;;4695168;30;20090;-84
2022/05/09 02:23:45;;;;;;;;;;;;;;;;;;4700016;30;19934;-84
2022/05/09 02:26:11;;;;;;;;;;;;;;;;;;4696818;30;19934;-84
2022/05/09 02:28:37;;;;;;;;;;;;;;;;;;4703733;30;19926;-84
2022/05/09 02:31:03;;;;;;;;;;;;;;;;;;4714984;30;19957;-84
2022/05/09 02:33:29;;;;;;;;;;;;;;;;;;4713123;30;20017;-84
2022/05/09 02:35:55;;;;;;;;;;;;;;;;;;4697012;30;19934;-84
2022/05/09 02:38:24;;;;;;;;;;;;;;;;;;4690745;30;20204;-84
2022/05/09 02:40:50;;;;;;;;;;;;;;;;;;4707113;30;19931;-85
2022/05/09 02:43:16;;;;;;;;;;;;;;;;;;4703851;30;21284;-84
2022/05/09 02:45:42;;;;;;;;;;;;;;;;;;4696674;30;19934;-85
2022/05/09 02:48:08;;;;;;;;;;;;;;;;;;4717857;30;19930;-85
2022/05/09 02:50:34;;;;;;;;;;;;;;;;;;4696140;30;19952;-84
2022/05/09 02:53:00;;;;;;;;;;;;;;;;;;4685290;30;19934;-84
2022/05/09 02:55:26;;;;;;;;;;;;;;;;;;4694638;30;19941;-84
2022/05/09 02:57:52;;;;;;;;;;;;;;;;;;4687210;30;19938;-84
2022/05/09 03:00:18;;;;;;;;;;;;;;;;;;4699565;30;20025;-85
2022/05/09 03:04:38;;;;;;;;;;;;;;;;;;4711762;29;19940;-84
2022/05/09 03:05:30;;;;;;;;;;;;;;;;;;4705520;30;19941;-84
2022/05/09 03:07:56;;;;;;;;;;;;;;;;;;4685339;30;19934;-84
2022/05/09 03:10:23;;;;;;;;;;;;;;;;;;4696899;30;19931;-84
2022/05/09 03:12:49;;;;;;;;;;;;;;;;;;4698512;30;19934;-84
2022/05/09 03:15:16;;;;;;;;;;;;;;;;;;4695642;30;20009;-84
2022/05/09 03:17:42;;;;;;;;;;;;;;;;;;4689090;30;20488;-84
2022/05/09 03:20:08;;;;;;;;;;;;;;;;;;4699015;30;19942;-84
2022/05/09 03:22:34;;;;;;;;;;;;;;;;;;4700027;30;19932;-84
2022/05/09 03:25:00;;;;;;;;;;;;;;;;;;4700198;30;19941;-84
2022/05/09 03:27:26;;;;;;;;;;;;;;;;;;4697021;30;19934;-84
2022/05/09 03:29:52;;;;;;;;;;;;;;;;;;4703092;30;19941;-84
2022/05/09 03:32:18;;;;;;;;;;;;;;;;;;4700147;30;19934;-84
2022/05/09 03:34:46;;;;;;;;;;;;;;;;;;4691479;30;20023;-84
2022/05/09 03:37:12;;;;;;;;;;;;;;;;;;4699117;30;19938;-84
2022/05/09 03:39:38;;;;;;;;;;;;;;;;;;4703661;30;19972;-84
2022/05/09 03:42:04;;;;;;;;;;;;;;;;;;4701359;30;19980;-84
2022/05/09 03:44:30;;;;;;;;;;;;;;;;;;4699474;30;19941;-84
2022/05/09 03:46:56;;;;;;;;;;;;;;;;;;4685300;30;20781;-84
2022/05/09 03:49:22;;;;;;;;;;;;;;;;;;4681529;30;19934;-84
2022/05/09 03:51:47;;;;;;;;;;;;;;;;;;4702549;30;20000;-85
2022/05/09 03:54:13;;;;;;;;;;;;;;;;;;4695805;30;19934;-84
2022/05/09 03:56:39;;;;;;;;;;;;;;;;;;4685188;30;19934;-85
2022/05/09 03:59:05;;;;;;;;;;;;;;;;;;4686339;30;19934;-84
2022/05/09 04:01:31;;;;;;;;;;;;;;;;;;4695079;30;21412;-84
2022/05/09 04:03:59;;;;;;;;;;;;;;;;;;4702553;30;19934;-84
2022/05/09 04:06:25;;;;;;;;;;;;;;;;;;4715342;30;20005;-84
2022/05/09 04:08:51;;;;;;;;;;;;;;;;;;4689476;30;20017;-84
2022/05/09 04:11:17;;;;;;;;;;;;;;;;;;4702741;30;19926;-84
2022/05/09 04:13:43;;;;;;;;;;;;;;;;;;4703748;30;20486;-84
2022/05/09 04:18:56;;;;;;;;;;;;;;;;;;4702534;30;19987;-84
2022/05/09 04:21:22;;;;;;;;;;;;;;;;;;4684297;30;19941;-85
2022/05/09 04:23:50;;;;;;;;;;;;;;;;;;4692810;30;19935;-84
2022/05/09 04:26:16;;;;;;;;;;;;;;;;;;4705610;30;19934;-84
2022/05/09 04:28:42;;;;;;;;;;;;;;;;;;4702184;30;19940;-84
2022/05/09 04:31:08;;;;;;;;;;;;;;;;;;4701187;30;19935;-84
2022/05/09 04:33:34;;;;;;;;;;;;;;;;;;4686031;30;20060;-84
2022/05/09 04:36:00;;;;;;;;;;;;;;;;;;4705041;30;19941;-84
2022/05/09 04:38:26;;;;;;;;;;;;;;;;;;4706014;30;19938;-84
2022/05/09 04:40:52;;;;;;;;;;;;;;;;;;4704204;30;19937;-84
2022/05/09 04:43:19;;;;;;;;;;;;;;;;;;4683888;30;20073;-85
2022/05/09 04:45:45;;;;;;;;;;;;;;;;;;4718748;30;20428;-84
2022/05/09 04:48:11;;;;;;;;;;;;;;;;;;4683781;30;19945;-85
2022/05/09 04:50:37;;;;;;;;;;;;;;;;;;4705586;30;19965;-84
2022/05/09 04:53:03;;;;;;;;;;;;;;;;;;4704144;30;19933;-84
2022/05/09 04:55:29;;;;;;;;;;;;;;;;;;4699011;30;19934;-84
2022/05/09 04:57:56;;;;;;;;;;;;;;;;;;4703259;30;19945;-84
2022/05/09 05:00:22;;;;;;;;;;;;;;;;;;4686968;30;19990;-85
2022/05/09 05:02:48;;;;;;;;;;;;;;;;;;4699092;30;20516;-84
2022/05/09 05:05:14;;;;;;;;;;;;;;;;;;4688218;30;19941;-85
2022/05/09 05:07:40;;;;;;;;;;;;;;;;;;4706735;30;20302;-84
2022/05/09 05:10:06;;;;;;;;;;;;;;;;;;4699107;30;19977;-85
2022/05/09 05:12:32;;;;;;;;;;;;;;;;;;4688714;30;19940;-84
2022/05/09 05:14:58;;;;;;;;;;;;;;;;;;4705773;30;20060;-84
2022/05/09 05:17:24;;;;;;;;;;;;;;;;;;4706501;30;19938;-85
2022/05/09 05:19:50;;;;;;;;;;;;;;;;;;4721048;30;19934;-84
2022/05/09 05:22:16;;;;;;;;;;;;;;;;;;4708849;30;19934;-85
2022/05/09 05:24:44;;;;;;;;;;;;;;;;;;4713570;30;19930;-85
2022/05/09 05:27:10;;;;;;;;;;;;;;;;;;4704005;29;19930;-85
2022/05/09 05:29:36;;;;;;;;;;;;;;;;;;4708293;30;19933;-84
2022/05/09 05:32:02;;;;;;;;;;;;;;;;;;4707738;30;19926;-84
2022/05/09 05:34:28;;;;;;;;;;;;;;;;;;4689716;30;19938;-84
2022/05/09 05:36:54;;;;;;;;;;;;;;;;;;4728472;30;20396;-84
2022/05/09 05:39:20;;;;;;;;;;;;;;;;;;4708529;30;19987;-84
2022/05/09 05:41:46;;;;;;;;;;;;;;;;;;4708810;30;19938;-84
2022/05/09 05:44:12;;;;;;;;;;;;;;;;;;4708963;30;19941;-84
2022/05/09 05:46:38;;;;;;;;;;;;;;;;;;4689930;30;19941;-84
2022/05/09 05:49:04;;;;;;;;;;;;;;;;;;4703859;30;19970;-85
2022/05/09 05:51:30;;;;;;;;;;;;;;;;;;4711782;30;19956;-83
2022/05/09 05:53:58;;;;;;;;;;;;;;;;;;4724134;30;20318;-84
2022/05/09 05:56:24;;;;;;;;;;;;;;;;;;4705087;30;19938;-84
2022/05/09 05:58:50;;;;;;;;;;;;;;;;;;4721082;30;20019;-84
2022/05/09 06:01:17;;;;;;;;;;;;;;;;;;4703070;30;20355;-84
2022/05/09 06:03:43;;;;;;;;;;;;;;;;;;4725285;30;20004;-84
2022/05/09 06:06:09;;;;;;;;;;;;;;;;;;4723266;30;19931;-84
2022/05/09 06:08:38;;;;;;;;;;;;;;;;;;4729489;30;20057;-84
2022/05/09 06:11:06;;;;;;;;;;;;;;;;;;4722296;30;19935;-84
2022/05/09 06:13:32;;;;;;;;;;;;;;;;;;4708637;30;20405;-84
2022/05/09 06:15:58;;;;;;;;;;;;;;;;;;4711929;30;19934;-84
2022/05/09 06:18:24;;;;;;;;;;;;;;;;;;4709712;30;22779;-84
2022/05/09 06:20:50;;;;;;;;;;;;;;;;;;4725670;30;20107;-84
2022/05/09 06:23:17;;;;;;;;;;;;;;;;;;4715061;30;19937;-85
2022/05/09 06:25:46;;;;;;;;;;;;;;;;;;4731596;30;19957;-84
2022/05/09 06:28:12;;;;;;;;;;;;;;;;;;4710851;30;19934;-85
2022/05/09 06:30:38;;;;;;;;;;;;;;;;;;4706390;30;19941;-84
2022/05/09 06:33:04;;;;;;;;;;;;;;;;;;4691546;30;19934;-85
2022/05/09 06:35:30;;;;;;;;;;;;;;;;;;4699001;30;20021;-84
2022/05/09 06:37:56;;;;;;;;;;;;;;;;;;4706762;30;20333;-84
2022/05/09 06:40:22;;;;;;;;;;;;;;;;;;4701657;30;20028;-83
2022/05/09 06:42:51;;;;;;;;;;;;;;;;;;4709091;30;19942;-84
2022/05/09 06:45:18;;;;;;;;;;;;;;;;;;4725672;30;19933;-84
2022/05/09 06:47:50;;;;;;;;;;;;;;;;;;4716721;30;19980;-83
2022/05/09 06:50:17;;;;;;;;;;;;;;;;;;4719752;30;20015;-84
2022/05/09 06:52:43;;;;;;;;;;;;;;;;;;4719803;30;20333;-84
2022/05/09 06:55:09;;;;;;;;;;;;;;;;;;4699539;30;19950;-84
2022/05/09 06:57:34;;;;;;;;;;;;;;;;;;4722223;29;19930;-84
2022/05/09 07:00:02;;;;;;;;;;;;;;;;;;4722205;30;19941;-84
2022/05/09 07:02:31;;;;;;;;;;;;;;;;;;4706053;30;19933;-84
2022/05/09 07:04:57;;;;;;;;;;;;;;;;;;4720523;30;20577;-84
2022/05/09 07:07:23;;;;;;;;;;;;;;;;;;4719635;30;20496;-84
2022/05/09 07:09:49;;;;;;;;;;;;;;;;;;4707827;30;20303;-84
2022/05/09 07:12:15;;;;;;;;;;;;;;;;;;4699903;30;19934;-84
2022/05/09 07:14:41;;;;;;;;;;;;;;;;;;4717985;30;19973;-84
2022/05/09 07:17:07;;;;;;;;;;;;;;;;;;4712944;30;19930;-85
2022/05/09 07:19:33;;;;;;;;;;;;;;;;;;4710266;30;19937;-85
2022/05/09 07:21:59;;;;;;;;;;;;;;;;;;4710831;30;19930;-84
2022/05/09 07:24:25;;;;;;;;;;;;;;;;;;4701661;30;19934;-85
2022/05/09 07:26:52;;;;;;;;;;;;;;;;;;4704909;30;19934;-85
2022/05/09 07:29:18;;;;;;;;;;;;;;;;;;4714584;30;19933;-85
2022/05/09 07:31:45;;;;;;;;;;;;;;;;;;4722791;30;19930;-85
2022/05/09 07:34:11;;;;;;;;;;;;;;;;;;4736231;30;19930;-84
2022/05/09 07:36:37;;;;;;;;;;;;;;;;;;4738614;30;19957;-85
2022/05/09 07:39:03;;;;;;;;;;;;;;;;;;4719032;30;19930;-85
2022/05/09 07:41:31;;;;;;;;;;;;;;;;;;4706754;30;19930;-85
2022/05/09 07:43:57;;;;;;;;;;;;;;;;;;4706221;30;19932;-85
2022/05/09 07:46:23;;;;;;;;;;;;;;;;;;4705697;30;20912;-85
2022/05/09 07:48:49;;;;;;;;;;;;;;;;;;4704269;30;20405;-84
2022/05/09 07:51:16;;;;;;;;;;;;;;;;;;4697075;30;19934;-84
2022/05/09 07:53:42;;;;;;;;;;;;;;;;;;4699576;30;20301;-85
2022/05/09 07:56:07;;;;;;;;;;;;;;;;;;4708923;30;19934;-85
2022/05/09 07:58:33;;;;;;;;;;;;;;;;;;4715051;30;19982;-85
2022/05/09 08:01:00;;;;;;;;;;;;;;;;;;4713186;30;19926;-85
2022/05/09 08:03:26;;;;;;;;;;;;;;;;;;4699789;30;19974;-85
2022/05/09 08:05:56;;;;;;;;;;;;;;;;;;4698514;30;20573;-85
2022/05/09 08:08:22;;;;;;;;;;;;;;;;;;4694537;30;19934;-85
2022/05/09 08:10:48;;;;;;;;;;;;;;;;;;4697333;30;19947;-85
2022/05/09 08:13:15;;;;;;;;;;;;;;;;;;4705721;30;20016;-85
2022/05/09 08:15:41;;;;;;;;;;;;;;;;;;4697653;30;19934;-85
2022/05/09 08:18:07;;;;;;;;;;;;;;;;;;4709200;30;19941;-85
2022/05/09 08:20:35;;;;;;;;;;;;;;;;;;4704224;30;20350;-85
2022/05/09 08:23:01;;;;;;;;;;;;;;;;;;4716647;30;20010;-85
2022/05/09 08:25:27;;;;;;;;;;;;;;;;;;4730467;30;19926;-85
2022/05/09 08:27:53;;;;;;;;;;;;;;;;;;4709568;30;19976;-85
2022/05/09 08:30:19;;;;;;;;;;;;;;;;;;4716656;30;19934;-85
2022/05/09 08:32:45;;;;;;;;;;;;;;;;;;4721169;30;20341;-85
2022/05/09 08:35:11;;;;;;;;;;;;;;;;;;4712307;30;19930;-85
2022/05/09 08:37:39;;;;;;;;;;;;;;;;;;4699637;30;19930;-86
2022/05/09 08:40:05;;;;;;;;;;;;;;;;;;4724618;30;19930;-85
2022/05/09 08:42:31;;;;;;;;;;;;;;;;;;4735223;30;19934;-85
2022/05/09 08:44:57;;;;;;;;;;;;;;;;;;4735420;30;20386;-85
2022/05/09 08:47:23;;;;;;;;;;;;;;;;;;4712304;30;20088;-86
2022/05/09 08:49:49;;;;;;;;;;;;;;;;;;4703481;30;19972;-85
2022/05/09 08:52:15;;;;;;;;;;;;;;;;;;4715937;29;19930;-86
2022/05/09 08:54:41;;;;;;;;;;;;;;;;;;4721748;30;19930;-85
2022/05/09 08:57:07;;;;;;;;;;;;;;;;;;4714167;30;19930;-85
2022/05/09 08:59:33;;;;;;;;;;;;;;;;;;4717633;30;20024;-85
2022/05/09 09:01:58;;;;;;;;;;;;;;;;;;4704109;30;19926;-85
2022/05/09 09:04:24;;;;;;;;;;;;;;;;;;4734168;30;20001;-85
2022/05/09 09:06:50;;;;;;;;;;;;;;;;;;4737381;30;20030;-85
2022/05/09 09:09:16;;;;;;;;;;;;;;;;;;4719956;30;20024;-85
2022/05/09 09:11:42;;;;;;;;;;;;;;;;;;4722481;30;19929;-85
2022/05/09 09:14:08;;;;;;;;;;;;;;;;;;4721945;30;19983;-85
2022/05/09 09:16:34;;;;;;;;;;;;;;;;;;4703870;30;19926;-86
2022/05/09 09:19:00;;;;;;;;;;;;;;;;;;4709191;30;19930;-86
2022/05/09 09:21:26;;;;;;;;;;;;;;;;;;4723394;30;20283;-86
2022/05/09 09:23:52;;;;;;;;;;;;;;;;;;4727918;30;19926;-86
2022/05/09 09:26:21;;;;;;;;;;;;;;;;;;4734767;30;19926;-86
2022/05/09 09:28:49;;;;;;;;;;;;;;;;;;4738401;30;19996;-85
2022/05/09 09:31:15;;;;;;;;;;;;;;;;;;4704917;30;19987;-83
2022/05/09 09:33:41;;;;;;;;;;;;;;;;;;4737263;30;19934;-83
2022/05/09 09:36:07;;;;;;;;;;;;;;;;;;4731852;30;20353;-84
2022/05/09 09:38:36;;;;;;;;;;;;;;;;;;4705152;30;20051;-84
2022/05/09 09:41:02;;;;;;;;;;;;;;;;;;4721858;30;20442;-84
2022/05/09 09:43:28;;;;;;;;;;;;;;;;;;4716776;30;20031;-84
2022/05/09 09:45:54;;;;;;;;;;;;;;;;;;4720417;30;19933;-84
2022/05/09 09:48:20;;;;;;;;;;;;;;;;;;4721458;30;19926;-84
2022/05/09 09:50:47;;;;;;;;;;;;;;;;;;4742735;30;19937;-84
2022/05/09 09:53:13;;;;;;;;;;;;;;;;;;4715803;30;19933;-84
2022/05/09 09:55:39;;;;;;;;;;;;;;;;;;4727492;30;19926;-84
2022/05/09 09:58:05;;;;;;;;;;;;;;;;;;4719203;30;19983;-85
2022/05/09 10:00:31;;;;;;;;;;;;;;;;;;4714777;30;19933;-84
2022/05/09 10:02:59;;;;;;;;;;;;;;;;;;4702686;30;19930;-79
2022/05/09 10:05:26;;;;;;;;;;;;;;;;;;4727485;30;21875;-79
2022/05/09 10:07:52;;;;;;;;;;;;;;;;;;4729413;30;20004;-79
2022/05/09 10:10:18;;;;;;;;;;;;;;;;;;4711239;30;20399;-78
2022/05/09 10:12:48;;;;;;;;;;;;;;;;;;4732727;30;20967;-79
2022/05/09 10:15:14;;;;;;;;;;;;;;;;;;4719754;30;19930;-79
2022/05/09 10:17:40;;;;;;;;;;;;;;;;;;4731226;29;20398;-79
2022/05/09 10:20:06;;;;;;;;;;;;;;;;;;4728652;30;19956;-79
2022/05/09 10:25:17;;;;;;;;;;;;;;;;;;4727044;30;19941;-78
2022/05/09 10:27:45;;;;;;;;;;;;;;;;;;4728758;30;20430;-79
2022/05/09 10:30:11;;;;;;;;;;;;;;;;;;4723919;30;19934;-79
2022/05/09 10:32:37;;;;;;;;;;;;;;;;;;4713211;30;19964;-79
2022/05/09 10:35:05;;;;;;;;;;;;;;;;;;4728519;30;19930;-79
2022/05/09 10:37:38;;;;;;;;;;;;;;;;;;4729068;30;19938;-79
2022/05/09 10:40:04;;;;;;;;;;;;;;;;;;4712347;30;19937;-79
2022/05/09 10:42:33;;;;;;;;;;;;;;;;;;4717068;30;19930;-79
2022/05/09 10:45:02;;;;;;;;;;;;;;;;;;4710648;30;19938;-79
2022/05/09 10:47:28;;;;;;;;;;;;;;;;;;4709953;29;20021;-79
2022/05/09 10:49:54;;;;;;;;;;;;;;;;;;4713830;30;19930;-79
2022/05/09 10:52:20;;;;;;;;;;;;;;;;;;4726922;30;19926;-79
2022/05/09 10:54:46;;;;;;;;;;;;;;;;;;4710052;30;20414;-79
2022/05/09 10:57:14;;;;;;;;;;;;;;;;;;4704629;30;20364;-79
2022/05/09 10:59:40;;;;;;;;;;;;;;;;;;4709691;30;19942;-79
2022/05/09 11:02:07;;;;;;;;;;;;;;;;;;4723649;30;19933;-79
2022/05/09 11:04:32;;;;;;;;;;;;;;;;;;4728360;30;19927;-79
2022/05/09 11:06:58;;;;;;;;;;;;;;;;;;4713855;30;19933;-78
2022/05/09 11:09:24;;;;;;;;;;;;;;;;;;4709373;30;21869;-79
2022/05/09 11:11:50;;;;;;;;;;;;;;;;;;4732653;30;21710;-79
2022/05/09 11:14:17;;;;;;;;;;;;;;;;;;4722702;30;19981;-79
2022/05/09 11:16:43;;;;;;;;;;;;;;;;;;4719098;30;19926;-79
2022/05/09 11:19:12;;;;;;;;;;;;;;;;;;4707805;30;20807;-79
2022/05/09 11:21:38;;;;;;;;;;;;;;;;;;4725199;30;19934;-79
2022/05/09 11:24:04;;;;;;;;;;;;;;;;;;4710551;30;19934;-79
2022/05/09 11:26:30;;;;;;;;;;;;;;;;;;4726906;30;19957;-79
2022/05/09 11:28:56;;;;;;;;;;;;;;;;;;4714903;30;19926;-79
2022/05/09 11:31:22;;;;;;;;;;;;;;;;;;4706755;30;19970;-79
2022/05/09 11:33:48;;;;;;;;;;;;;;;;;;4729486;30;19941;-79
2022/05/09 11:36:14;;;;;;;;;;;;;;;;;;4692655;30;19936;-79
2022/05/09 11:38:40;;;;;;;;;;;;;;;;;;4719806;30;20027;-79
2022/05/09 11:41:06;;;;;;;;;;;;;;;;;;4712535;30;19930;-79
2022/05/09 11:43:37;;;;;;;;;;;;;;;;;;4736322;30;19978;-78
2022/05/09 11:46:03;;;;;;;;;;;;;;;;;;4717100;30;20013;-79
2022/05/09 11:48:29;;;;;;;;;;;;;;;;;;4722711;30;19931;-78
2022/05/09 11:50:56;;;;;;;;;;;;;;;;;;4715919;30;19986;-78
2022/05/09 11:53:22;;;;;;;;;;;;;;;;;;4715175;30;20267;-79
2022/05/09 11:55:48;;;;;;;;;;;;;;;;;;4721638;30;19933;-78
2022/05/09 11:58:14;;;;;;;;;;;;;;;;;;4717199;30;19938;-79
2022/05/09 12:00:47;;;;;;;;;;;;;;;;;;4721530;30;19991;-79
2022/05/09 12:03:16;;;;;;;;;;;;;;;;;;4725906;30;19927;-79
2022/05/09 12:05:43;;;;;;;;;;;;;;;;;;4706700;30;19933;-79
2022/05/09 12:08:09;;;;;;;;;;;;;;;;;;4715760;30;19983;-79
2022/05/09 12:10:35;;;;;;;;;;;;;;;;;;4739123;30;19926;-79
2022/05/09 12:13:01;;;;;;;;;;;;;;;;;;4719152;30;19969;-78
2022/05/09 12:15:27;;;;;;;;;;;;;;;;;;4732209;30;19926;-78
2022/05/09 12:17:53;;;;;;;;;;;;;;;;;;4716161;30;19930;-79
2022/05/09 12:20:26;;;;;;;;;;;;;;;;;;4715649;30;20021;-79
2022/05/09 12:22:52;;;;;;;;;;;;;;;;;;4716474;30;20024;-79
2022/05/09 12:25:19;;;;;;;;;;;;;;;;;;4715750;30;20004;-79
2022/05/09 12:27:45;;;;;;;;;;;;;;;;;;4720854;30;19934;-79
2022/05/09 12:30:11;;;;;;;;;;;;;;;;;;4731815;30;19961;-79
2022/05/09 12:32:37;;;;;;;;;;;;;;;;;;4735225;30;19965;-79
2022/05/09 12:35:07;;;;;;;;;;;;;;;;;;4699989;30;19930;-79
2022/05/09 12:37:33;;;;;;;;;;;;;;;;;;4698807;30;19939;-79
2022/05/09 12:40:00;;;;;;;;;;;;;;;;;;4711534;30;19953;-79
2022/05/09 12:42:26;;;;;;;;;;;;;;;;;;4694264;29;19961;-79
2022/05/09 12:44:51;;;;;;;;;;;;;;;;;;4716520;30;19930;-79
2022/05/09 12:47:17;;;;;;;;;;;;;;;;;;4697701;30;20373;-79
2022/05/09 12:49:43;;;;;;;;;;;;;;;;;;4714863;30;19926;-78
2022/05/09 12:52:09;;;;;;;;;;;;;;;;;;4711277;30;19936;-79
2022/05/09 12:54:39;;;;;;;;;;;;;;;;;;4714713;30;19930;-78
2022/05/09 12:57:05;;;;;;;;;;;;;;;;;;4708846;29;19941;-79
2022/05/09 12:59:31;;;;;;;;;;;;;;;;;;4717274;30;19935;-78
2022/05/09 13:01:58;;;;;;;;;;;;;;;;;;4717958;30;20271;-79
2022/05/09 13:04:25;;;;;;;;;;;;;;;;;;4723247;30;19941;-79
2022/05/09 13:06:51;;;;;;;;;;;;;;;;;;4715087;30;20044;-79
2022/05/09 13:09:17;;;;;;;;;;;;;;;;;;4732101;30;20361;-79
2022/05/09 13:11:43;;;;;;;;;;;;;;;;;;4727726;30;20672;-79
2022/05/09 13:14:09;;;;;;;;;;;;;;;;;;4728467;30;20357;-79
2022/05/09 13:16:35;;;;;;;;;;;;;;;;;;4712464;30;19937;-79
2022/05/09 13:19:01;;;;;;;;;;;;;;;;;;4717481;30;20339;-79
2022/05/09 13:21:27;;;;;;;;;;;;;;;;;;4710355;30;19930;-78
2022/05/09 13:23:53;;;;;;;;;;;;;;;;;;4720533;30;19930;-78
2022/05/09 13:26:19;;;;;;;;;;;;;;;;;;4712792;30;19983;-79
2022/05/09 13:28:45;;;;;;;;;;;;;;;;;;4725765;30;19937;-79
2022/05/09 13:31:11;;;;;;;;;;;;;;;;;;4718338;30;19934;-78
2022/05/09 13:33:37;;;;;;;;;;;;;;;;;;4713461;30;19939;-79
2022/05/09 13:36:05;;;;;;;;;;;;;;;;;;4716166;30;19931;-78
2022/05/09 13:38:34;;;;;;;;;;;;;;;;;;4720309;30;20718;-78
2022/05/09 13:41:00;;;;;;;;;;;;;;;;;;4715594;30;19938;-78
2022/05/09 13:43:26;;;;;;;;;;;;;;;;;;4709291;30;19938;-78
2022/05/09 13:45:52;;;;;;;;;;;;;;;;;;4728521;30;19965;-79
2022/05/09 13:48:20;;;;;;;;;;;;;;;;;;4708328;30;19926;-79
2022/05/09 13:50:46;;;;;;;;;;;;;;;;;;4707980;30;19982;-77
2022/05/09 13:53:12;;;;;;;;;;;;;;;;;;4701409;30;20025;-78
2022/05/09 13:55:38;;;;;;;;;;;;;;;;;;4725193;30;19937;-77
2022/05/09 13:58:04;;;;;;;;;;;;;;;;;;4725221;30;19996;-78
2022/05/09 14:00:30;;;;;;;;;;;;;;;;;;4722905;30;20011;-78
2022/05/09 14:02:56;;;;;;;;;;;;;;;;;;4726507;30;19950;-78
2022/05/09 14:05:22;;;;;;;;;;;;;;;;;;4722862;30;20359;-78
2022/05/09 14:07:49;;;;;;;;;;;;;;;;;;4731112;30;19930;-78
2022/05/09 14:10:14;;;;;;;;;;;;;;;;;;4706011;30;19945;-78
2022/05/09 14:12:40;;;;;;;;;;;;;;;;;;4716920;30;19930;-78
2022/05/09 14:15:07;;;;;;;;;;;;;;;;;;4724910;30;19926;-78
2022/05/09 14:17:33;;;;;;;;;;;;;;;;;;4729298;30;19967;-78
2022/05/09 14:19:59;;;;;;;;;;;;;;;;;;4711090;30;20028;-78
2022/05/09 14:22:25;;;;;;;;;;;;;;;;;;4720292;30;19931;-78
2022/05/09 14:30:21;;;;;;;;;;;;;;;;;;4719667;30;19991;-78
2022/05/09 14:32:47;;;;;;;;;;;;;;;;;;4700359;30;20382;-78
2022/05/09 14:35:13;;;;;;;;;;;;;;;;;;4710871;30;20024;-78
2022/05/09 14:37:39;;;;;;;;;;;;;;;;;;4699890;30;19930;-78
2022/05/09 14:40:04;;;;;;;;;;;;;;;;;;4729348;30;20062;-78
2022/05/09 14:42:32;;;;;;;;;;;;;;;;;;4724891;30;19934;-78
2022/05/09 14:44:58;;;;;;;;;;;;;;;;;;4716214;30;19937;-78
2022/05/09 14:47:25;;;;;;;;;;;;;;;;;;4708294;30;19934;-78
2022/05/09 14:49:51;;;;;;;;;;;;;;;;;;4719878;30;19973;-78
2022/05/09 14:52:18;;;;;;;;;;;;;;;;;;4712002;30;19970;-78
2022/05/09 14:54:44;;;;;;;;;;;;;;;;;;4710530;30;19933;-78
2022/05/09 14:57:25;;;;;;;;;;;;;;;;;;4704710;30;19945;-78
2022/05/09 14:59:51;;;;;;;;;;;;;;;;;;4727037;30;19986;-78
2022/05/09 15:02:17;;;;;;;;;;;;;;;;;;4705357;30;19989;-78
2022/05/09 15:04:43;;;;;;;;;;;;;;;;;;4725140;30;20260;-78
2022/05/09 15:07:10;;;;;;;;;;;;;;;;;;4705484;30;20290;-78
2022/05/09 15:09:35;;;;;;;;;;;;;;;;;;4728444;30;19934;-78
2022/05/09 15:12:02;;;;;;;;;;;;;;;;;;4725101;30;20024;-78
2022/05/09 15:14:28;;;;;;;;;;;;;;;;;;4724109;29;20283;-78
2022/05/09 15:16:54;;;;;;;;;;;;;;;;;;4724710;30;19934;-78
2022/05/09 15:19:25;;;;;;;;;;;;;;;;;;4721392;30;19981;-78
2022/05/09 15:21:52;;;;;;;;;;;;;;;;;;4707707;30;19941;-77
2022/05/09 15:24:18;;;;;;;;;;;;;;;;;;4722725;30;21745;-78
2022/05/09 15:26:44;;;;;;;;;;;;;;;;;;4696055;30;19979;-78
2022/05/09 15:29:10;;;;;;;;;;;;;;;;;;4725096;30;19930;-78
2022/05/09 15:31:40;;;;;;;;;;;;;;;;;;4730617;30;20439;-78
2022/05/09 15:34:06;;;;;;;;;;;;;;;;;;4728534;30;20008;-78
2022/05/09 15:36:33;;;;;;;;;;;;;;;;;;4710608;30;20379;-78
2022/05/09 15:38:59;;;;;;;;;;;;;;;;;;4722664;30;19930;-78
2022/05/09 15:41:28;;;;;;;;;;;;;;;;;;4719663;30;19941;-78
2022/05/09 15:43:55;;;;;;;;;;;;;;;;;;4707251;30;19945;-78
2022/05/09 15:46:21;;;;;;;;;;;;;;;;;;4692053;30;19989;-78
2022/05/09 15:48:47;;;;;;;;;;;;;;;;;;4705675;30;20009;-78
2022/05/09 15:51:13;;;;;;;;;;;;;;;;;;4700678;30;19931;-78
2022/05/09 15:53:39;;;;;;;;;;;;;;;;;;4703962;30;20017;-78
2022/05/09 15:56:05;;;;;;;;;;;;;;;;;;4685692;30;19970;-78
2022/05/09 15:58:31;;;;;;;;;;;;;;;;;;4710171;30;19930;-80
2022/05/09 16:00:57;;;;;;;;;;;;;;;;;;4708039;30;19934;-80
2022/05/09 16:03:29;;;;;;;;;;;;;;;;;;4684737;30;20024;-80
2022/05/09 16:11:24;;;;;;;;;;;;;;;;;;4703361;30;20720;-80
2022/05/09 16:13:50;;;;;;;;;;;;;;;;;;4703559;30;19974;-80
2022/05/09 16:16:16;;;;;;;;;;;;;;;;;;4698742;30;20017;-80
2022/05/09 16:18:42;;;;;;;;;;;;;;;;;;4699204;30;20007;-81
2022/05/09 16:21:08;;;;;;;;;;;;;;;;;;4693675;30;19941;-80
2022/05/09 16:23:36;;;;;;;;;;;;;;;;;;4695243;30;19931;-81
2022/05/09 16:26:03;;;;;;;;;;;;;;;;;;4709283;30;20687;-81
2022/05/09 16:28:30;;;;;;;;;;;;;;;;;;4693296;30;20029;-81
2022/05/09 16:30:56;;;;;;;;;;;;;;;;;;4684453;30;19935;-80
2022/05/09 16:33:22;;;;;;;;;;;;;;;;;;4677373;30;19926;-80
2022/05/09 16:35:49;;;;;;;;;;;;;;;;;;4678279;30;19926;-80
2022/05/09 16:38:15;;;;;;;;;;;;;;;;;;4687550;30;20004;-80
2022/05/09 16:40:41;;;;;;;;;;;;;;;;;;4691988;30;20508;-80
2022/05/09 16:43:08;;;;;;;;;;;;;;;;;;4697292;30;19934;-80
2022/05/09 16:45:35;;;;;;;;;;;;;;;;;;4726524;30;19969;-80
2022/05/09 16:48:01;;;;;;;;;;;;;;;;;;4710255;30;20333;-80
2022/05/09 16:50:27;;;;;;;;;;;;;;;;;;4717406;30;19961;-80
2022/05/09 16:52:53;;;;;;;;;;;;;;;;;;4708834;30;19931;-80
2022/05/09 16:55:19;;;;;;;;;;;;;;;;;;4702941;30;20377;-80
2022/05/09 16:57:45;;;;;;;;;;;;;;;;;;4706190;30;19934;-80
2022/05/09 17:00:11;;;;;;;;;;;;;;;;;;4704707;30;19953;-80